Time;durP1;ratioP1;P1;durP2;ratioP2;P2;SDS_P1;SDS_P2;PMS_P1;PMS_P2;Temp;Humidity;BMP_temperature;BMP_pressure;BME280_temperature;BME280_humidity;BME280_pressure;Samples;Min_cycle;Max_cycle;Signal;HPM_P1;HPM_P2
2023/01/20 00:02:24;;;;;;;60.60;24.30;;;;;;;1.38;100.00;98190.40;67773;1277;1016480;-59
2023/01/20 00:05:26;;;;;;;57.30;24.90;;;;;;;1.42;100.00;98199.05;67837;1278;1016430;-59
2023/01/20 00:08:29;;;;;;;61.20;25.60;;;;;;;1.48;100.00;98201.95;67759;1278;1016488;-59
2023/01/20 00:11:31;;;;;;;57.90;25.00;;;;;;;1.59;100.00;98205.90;67793;1278;1016440;-59
2023/01/20 00:14:34;;;;;;;57.70;24.40;;;;;;;1.64;100.00;98205.36;67778;1278;1016426;-60
2023/01/20 00:17:36;;;;;;;63.90;24.60;;;;;;;1.69;100.00;98211.06;67808;1262;1016449;-59
2023/01/20 00:20:39;;;;;;;58.10;24.50;;;;;;;1.66;100.00;98212.71;67835;1277;1016397;-59
2023/01/20 00:23:41;;;;;;;63.30;25.30;;;;;;;1.66;100.00;98214.10;67796;1278;1016263;-59
2023/01/20 00:26:44;;;;;;;60.60;27.40;;;;;;;1.67;100.00;98218.35;67793;1256;1016358;-59
2023/01/20 00:29:46;;;;;;;59.10;25.30;;;;;;;1.57;100.00;98219.38;67741;1277;1016532;-60
2023/01/20 00:32:49;;;;;;;59.20;24.40;;;;;;;1.58;100.00;98220.39;67838;1278;1016449;-59
2023/01/20 00:35:51;;;;;;;59.30;24.90;;;;;;;1.63;100.00;98219.70;67813;1277;1016140;-59
2023/01/20 00:38:54;;;;;;;58.00;25.20;;;;;;;1.66;100.00;98210.81;67764;1278;1016002;-60
2023/01/20 00:41:56;;;;;;;62.40;25.60;;;;;;;1.67;100.00;98206.98;67798;1278;1016038;-59
2023/01/20 00:44:59;;;;;;;56.20;24.00;;;;;;;1.61;100.00;98213.41;67849;1277;1016138;-60
2023/01/20 00:48:01;;;;;;;61.70;24.90;;;;;;;1.51;100.00;98214.09;67818;1277;1016284;-59
2023/01/20 00:51:03;;;;;;;57.70;24.60;;;;;;;1.45;100.00;98217.05;67780;1278;1016288;-59
2023/01/20 00:54:06;;;;;;;62.10;26.80;;;;;;;1.40;100.00;98213.95;67792;1278;1015999;-59
2023/01/20 00:57:08;;;;;;;59.10;23.30;;;;;;;1.34;100.00;98210.16;67757;1278;1016469;-59
2023/01/20 01:00:11;;;;;;;57.80;24.00;;;;;;;1.32;100.00;98212.15;67794;1278;1016673;-59
2023/01/20 01:03:13;;;;;;;53.80;23.80;;;;;;;1.31;100.00;98217.35;67833;1277;1016130;-59
2023/01/20 01:06:16;;;;;;;60.00;24.20;;;;;;;1.30;100.00;98219.23;67821;1278;1016411;-59
2023/01/20 01:09:20;;;;;;;61.00;24.70;;;;;;;1.33;100.00;98223.47;67800;1278;1016368;-59
2023/01/20 01:12:23;;;;;;;60.20;25.10;;;;;;;1.36;100.00;98224.05;67814;1278;1020144;-59
2023/01/20 01:15:25;;;;;;;54.60;23.10;;;;;;;1.35;100.00;98209.10;67788;1278;1016820;-60
2023/01/20 01:18:27;;;;;;;56.50;22.10;;;;;;;1.42;100.00;98197.34;67828;1277;1016391;-60
2023/01/20 01:21:30;;;;;;;56.30;23.60;;;;;;;1.40;100.00;98198.27;67834;1278;1016485;-59
2023/01/20 01:24:33;;;;;;;57.70;22.50;;;;;;;1.43;100.00;98213.14;67772;1277;1016550;-59
2023/01/20 01:27:36;;;;;;;59.80;22.70;;;;;;;1.42;100.00;98215.59;67793;1278;1016283;-59
2023/01/20 01:30:38;;;;;;;57.70;23.10;;;;;;;1.45;100.00;98215.52;67824;1277;1016356;-59
2023/01/20 01:33:40;;;;;;;53.50;20.40;;;;;;;1.43;100.00;98219.55;67788;1277;1016492;-59
2023/01/20 01:36:43;;;;;;;57.80;21.90;;;;;;;1.35;100.00;98229.27;67790;1278;1016500;-59
2023/01/20 01:39:45;;;;;;;50.30;19.30;;;;;;;1.34;100.00;98234.96;67739;1278;1016077;-59
2023/01/20 01:42:48;;;;;;;53.30;22.90;;;;;;;1.30;100.00;98245.30;67756;1278;1016374;-59
2023/01/20 01:45:50;;;;;;;50.90;20.40;;;;;;;1.31;100.00;98241.79;67817;1278;1016391;-60
2023/01/20 01:48:53;;;;;;;50.50;20.10;;;;;;;1.36;100.00;98239.73;67787;1278;1016084;-59
2023/01/20 01:51:55;;;;;;;49.00;18.90;;;;;;;1.34;100.00;98239.27;67765;1278;1016261;-59
2023/01/20 01:54:58;;;;;;;49.60;20.20;;;;;;;1.31;100.00;98248.02;67795;1278;1016475;-60
2023/01/20 01:58:00;;;;;;;46.30;18.90;;;;;;;1.26;100.00;98257.30;67814;1278;1016520;-59
2023/01/20 02:01:03;;;;;;;49.00;18.40;;;;;;;1.22;100.00;98265.52;67820;1278;1016291;-59
2023/01/20 02:04:05;;;;;;;48.20;19.90;;;;;;;1.20;100.00;98281.59;67759;1278;1016975;-59
2023/01/20 02:07:08;;;;;;;46.10;18.50;;;;;;;1.27;100.00;98295.66;67753;1278;1016508;-59
2023/01/20 02:10:10;;;;;;;51.00;19.40;;;;;;;1.34;100.00;98289.06;67834;1278;1016285;-59
2023/01/20 02:13:12;;;;;;;51.20;20.60;;;;;;;1.37;100.00;98286.55;67862;1278;1016448;-59
2023/01/20 02:16:15;;;;;;;53.70;21.20;;;;;;;1.32;100.00;98280.70;67808;1278;1017784;-59
2023/01/20 02:19:17;;;;;;;58.70;23.00;;;;;;;1.27;100.00;98278.63;67800;1278;1016294;-59
2023/01/20 02:22:20;;;;;;;48.70;20.10;;;;;;;1.27;100.00;98278.60;67781;1277;1016225;-60
2023/01/20 02:25:22;;;;;;;55.70;22.90;;;;;;;1.24;100.00;98278.20;67739;1278;1017214;-60
2023/01/20 02:28:25;;;;;;;53.40;21.50;;;;;;;1.27;100.00;98277.78;67797;1278;1016343;-59
2023/01/20 02:31:27;;;;;;;49.80;20.70;;;;;;;1.21;100.00;98274.85;67763;1278;1016322;-59
2023/01/20 02:34:30;;;;;;;51.40;21.40;;;;;;;1.16;100.00;98274.98;67775;1278;1016479;-59
2023/01/20 02:37:32;;;;;;;51.30;21.30;;;;;;;1.19;100.00;98275.77;67780;1278;1016368;-59
2023/01/20 02:40:35;;;;;;;49.10;19.60;;;;;;;1.18;100.00;98289.08;67836;1278;1016538;-59
2023/01/20 02:43:37;;;;;;;49.90;20.50;;;;;;;1.16;100.00;98297.88;67849;1277;1016279;-59
2023/01/20 02:46:40;;;;;;;48.50;19.90;;;;;;;1.12;100.00;98304.05;67820;1278;1016864;-59
2023/01/20 02:49:42;;;;;;;43.00;18.00;;;;;;;1.12;100.00;98311.66;67748;1278;1016483;-60
2023/01/20 02:52:44;;;;;;;43.80;17.50;;;;;;;1.07;100.00;98311.65;67812;1278;1016083;-60
2023/01/20 02:55:47;;;;;;;49.80;19.40;;;;;;;0.97;100.00;98299.70;67837;1278;1018101;-59
2023/01/20 02:58:49;;;;;;;45.70;18.40;;;;;;;0.93;100.00;98289.48;67846;1278;1016487;-59
2023/01/20 03:01:52;;;;;;;45.70;18.30;;;;;;;0.93;100.00;98288.61;67823;1278;1016595;-59
2023/01/20 03:04:54;;;;;;;;;;;;;;;0.94;100.00;98285.51;67860;1278;1016124;-60
2023/01/20 03:07:57;;;;;;;42.80;16.70;;;;;;;0.91;100.00;98279.74;67861;1278;1016507;-59
2023/01/20 03:10:59;;;;;;;42.70;16.60;;;;;;;0.90;100.00;98282.71;67810;1278;1016313;-60
2023/01/20 03:14:02;;;;;;;41.80;16.30;;;;;;;0.92;100.00;98284.36;67774;1278;1017809;-60
2023/01/20 03:17:04;;;;;;;41.60;17.10;;;;;;;0.97;100.00;98283.00;67792;1278;1016483;-59
2023/01/20 03:20:07;;;;;;;43.40;16.20;;;;;;;0.94;100.00;98285.84;67834;1278;1016463;-60
2023/01/20 03:23:10;;;;;;;43.90;17.80;;;;;;;0.92;100.00;98294.51;67817;1278;1016491;-60
2023/01/20 03:26:12;;;;;;;44.60;17.70;;;;;;;0.92;100.00;98297.09;67768;1278;1016444;-59
2023/01/20 03:29:17;;;;;;;43.30;17.40;;;;;;;0.81;100.00;98304.81;67777;1278;1016504;-60
2023/01/20 03:32:21;;;;;;;46.60;18.60;;;;;;;0.87;100.00;98313.77;67813;1278;1016835;-59
2023/01/20 03:35:24;;;;;;;45.50;18.50;;;;;;;0.96;100.00;98320.91;67855;1278;1018394;-59
2023/01/20 03:38:26;;;;;;;47.80;19.70;;;;;;;0.98;100.00;98329.80;67816;1278;1016471;-59
2023/01/20 03:41:29;;;;;;;45.40;19.10;;;;;;;1.03;100.00;98328.96;67841;1278;1018392;-60
2023/01/20 03:44:32;;;;;;;47.70;19.50;;;;;;;1.06;100.00;98322.50;67816;1277;1016322;-59
2023/01/20 03:47:34;;;;;;;50.70;19.40;;;;;;;1.10;100.00;98325.80;67791;1277;1015951;-60
2023/01/20 03:50:37;;;;;;;43.30;17.10;;;;;;;1.14;100.00;98329.83;67750;1278;1016448;-59
2023/01/20 03:53:44;;;;;;;45.10;17.80;;;;;;;1.20;100.00;98343.77;67827;1278;1015988;-59
2023/01/20 03:56:46;;;;;;;46.50;18.50;;;;;;;1.33;100.00;98349.55;67850;1278;1017504;-59
2023/01/20 03:59:49;;;;;;;47.40;19.00;;;;;;;1.51;100.00;98347.98;67807;1277;1016391;-59
2023/01/20 04:02:51;;;;;;;48.40;19.60;;;;;;;1.61;100.00;98351.80;67795;1278;1016253;-60
2023/01/20 04:05:54;;;;;;;50.20;19.20;;;;;;;1.85;100.00;98354.82;67816;1278;1017824;-59
2023/01/20 04:08:56;;;;;;;46.50;19.00;;;;;;;1.97;100.00;98350.96;67815;1278;1016437;-59
2023/01/20 04:11:59;;;;;;;45.00;18.80;;;;;;;1.93;100.00;98350.41;67819;1277;1016502;-59
2023/01/20 04:15:01;;;;;;;45.70;18.20;;;;;;;1.83;100.00;98367.30;67781;1277;1016341;-59
2023/01/20 04:18:03;;;;;;;;;;;;;;;1.72;100.00;98374.20;67790;1278;1016956;-59
2023/01/20 04:21:06;;;;;;;45.00;18.80;;;;;;;1.61;100.00;98374.73;67836;1278;1019485;-59
2023/01/20 04:24:08;;;;;;;44.50;18.00;;;;;;;1.51;100.00;98370.20;67722;1278;1015970;-59
2023/01/20 04:27:11;;;;;;;43.00;17.00;;;;;;;1.53;100.00;98371.88;67833;1278;1016471;-59
2023/01/20 04:30:13;;;;;;;43.50;17.80;;;;;;;1.48;100.00;98381.68;67797;1278;1016369;-60
2023/01/20 04:33:16;;;;;;;41.60;17.30;;;;;;;1.41;100.00;98388.62;67800;1278;1016440;-59
2023/01/20 04:36:18;;;;;;;44.40;16.80;;;;;;;1.37;100.00;98387.17;67840;1278;1016272;-59
2023/01/20 04:39:21;;;;;;;44.80;17.10;;;;;;;1.38;100.00;98389.58;67825;1278;1016715;-59
2023/01/20 04:42:23;;;;;;;39.60;15.30;;;;;;;1.32;100.00;98389.05;67796;1278;1016391;-59
2023/01/20 04:45:26;;;;;;;37.60;14.50;;;;;;;1.34;100.00;98390.90;67836;1278;1016469;-59
2023/01/20 04:48:28;;;;;;;40.40;15.20;;;;;;;1.33;100.00;98393.14;67836;1278;1016489;-60
2023/01/20 04:51:31;;;;;;;40.30;15.80;;;;;;;1.28;100.00;98401.73;67802;1278;1016482;-59
2023/01/20 04:54:33;;;;;;;41.40;15.60;;;;;;;1.28;100.00;98400.04;67783;1278;1018492;-59
2023/01/20 04:57:35;;;;;;;41.00;15.40;;;;;;;1.30;100.00;98396.37;67792;1278;1016881;-59
2023/01/20 05:00:38;;;;;;;39.60;15.60;;;;;;;1.34;100.00;98398.98;67841;1277;1016267;-59
2023/01/20 05:03:40;;;;;;;40.00;15.50;;;;;;;1.40;100.00;98401.40;67866;1278;1017063;-59
2023/01/20 05:06:43;;;;;;;38.80;14.50;;;;;;;1.41;100.00;98414.12;67851;1277;1016455;-59
2023/01/20 05:09:46;;;;;;;38.50;14.70;;;;;;;1.40;100.00;98422.76;67839;1278;1016435;-59
2023/01/20 05:12:49;;;;;;;39.80;15.40;;;;;;;1.37;100.00;98441.79;67853;1277;1016459;-59
2023/01/20 05:15:51;;;;;;;39.40;15.30;;;;;;;1.36;100.00;98450.96;67850;1278;1016177;-59
2023/01/20 05:18:53;;;;;;;38.70;16.10;;;;;;;1.34;100.00;98448.24;67794;1278;1016206;-60
2023/01/20 05:21:56;;;;;;;43.30;17.30;;;;;;;1.35;100.00;98453.40;67805;1278;1017850;-59
2023/01/20 05:24:58;;;;;;;39.70;15.70;;;;;;;1.37;100.00;98454.04;67829;1278;1016126;-59
2023/01/20 05:28:01;;;;;;;42.80;16.40;;;;;;;1.48;100.00;98458.54;67827;1278;1016362;-59
2023/01/20 05:31:03;;;;;;;39.90;15.10;;;;;;;1.58;100.00;98460.14;67846;1278;1019654;-60
2023/01/20 05:34:06;;;;;;;39.60;15.50;;;;;;;1.64;100.00;98453.92;67766;1278;1016122;-59
2023/01/20 05:37:08;;;;;;;40.10;14.80;;;;;;;1.72;100.00;98456.42;67774;1278;1016183;-59
2023/01/20 05:40:11;;;;;;;44.10;16.40;;;;;;;1.82;100.00;98450.80;67815;1277;1016369;-60
2023/01/20 05:43:13;;;;;;;38.80;14.80;;;;;;;1.90;100.00;98450.19;67796;1278;1016147;-59
2023/01/20 05:46:16;;;;;;;38.00;15.60;;;;;;;1.94;100.00;98448.67;67816;1277;1016298;-59
2023/01/20 05:49:18;;;;;;;40.80;16.30;;;;;;;1.98;100.00;98455.09;67806;1278;1016446;-59
2023/01/20 05:52:20;;;;;;;45.00;16.80;;;;;;;2.14;100.00;98457.88;67826;1278;1016433;-59
2023/01/20 05:55:23;;;;;;;38.20;15.00;;;;;;;2.15;100.00;98463.69;67852;1278;1016397;-59
2023/01/20 05:58:25;;;;;;;40.00;14.70;;;;;;;2.23;100.00;98458.97;67830;1278;1016259;-59
2023/01/20 06:01:28;;;;;;;41.70;16.20;;;;;;;2.40;100.00;98458.88;67802;1278;1016221;-59
2023/01/20 06:04:30;;;;;;;41.10;15.50;;;;;;;2.35;100.00;98463.91;67833;1276;1016474;-60
2023/01/20 06:07:33;;;;;;;38.10;15.30;;;;;;;2.22;100.00;98469.67;67871;1277;1016874;-59
2023/01/20 06:10:35;;;;;;;41.10;15.40;;;;;;;2.02;100.00;98473.08;67826;1278;1016219;-60
2023/01/20 06:13:39;;;;;;;38.50;14.50;;;;;;;2.00;100.00;98477.27;67839;1278;1015950;-59
2023/01/20 06:16:41;;;;;;;41.00;15.60;;;;;;;2.05;100.00;98476.77;67849;1277;1016481;-59
2023/01/20 06:19:43;;;;;;;41.10;15.40;;;;;;;2.06;100.00;98475.36;67825;1278;1016421;-59
2023/01/20 06:22:46;;;;;;;38.20;14.70;;;;;;;2.10;100.00;98474.03;67781;1277;1016400;-59
2023/01/20 06:25:48;;;;;;;38.70;14.80;;;;;;;2.15;100.00;98476.48;67808;1278;1016028;-59
2023/01/20 06:28:51;;;;;;;39.20;14.90;;;;;;;2.18;100.00;98482.08;67879;1278;1016571;-59
2023/01/20 06:31:54;;;;;;;35.40;14.40;;;;;;;2.21;100.00;98485.41;67832;1278;1018873;-59
2023/01/20 06:34:57;;;;;;;40.40;14.70;;;;;;;2.23;100.00;98492.95;67804;1278;1016549;-59
2023/01/20 06:37:59;;;;;;;37.60;14.50;;;;;;;2.31;100.00;98492.33;67840;1277;1016277;-59
2023/01/20 06:41:01;;;;;;;38.60;14.80;;;;;;;2.33;100.00;98498.66;67851;1278;1016218;-59
2023/01/20 06:44:04;;;;;;;39.40;15.30;;;;;;;2.29;100.00;98497.95;67863;1278;1016455;-59
2023/01/20 06:47:06;;;;;;;37.50;15.40;;;;;;;2.31;100.00;98505.10;67795;1278;1016342;-60
2023/01/20 06:50:09;;;;;;;38.80;16.10;;;;;;;2.34;100.00;98515.54;67818;1278;1016311;-59
2023/01/20 06:53:11;;;;;;;38.30;14.30;;;;;;;2.41;100.00;98516.02;67824;1277;1016725;-59
2023/01/20 06:56:14;;;;;;;37.10;15.30;;;;;;;2.49;100.00;98520.39;67803;1277;1016025;-59
2023/01/20 06:59:16;;;;;;;42.90;15.80;;;;;;;2.51;100.00;98527.95;67829;1278;1017063;-59
2023/01/20 07:02:19;;;;;;;40.80;16.20;;;;;;;2.42;100.00;98528.74;67785;1278;1016472;-60
2023/01/20 07:05:21;;;;;;;38.50;14.70;;;;;;;2.41;100.00;98536.54;67841;1278;1016235;-59
2023/01/20 07:08:24;;;;;;;37.60;15.00;;;;;;;2.41;100.00;98541.02;67838;1278;1016120;-59
2023/01/20 07:11:26;;;;;;;37.30;14.50;;;;;;;2.47;100.00;98548.79;67818;1277;1015969;-59
2023/01/20 07:14:29;;;;;;;36.60;14.20;;;;;;;2.48;100.00;98550.13;67802;1278;1016462;-59
2023/01/20 07:17:31;;;;;;;35.30;14.30;;;;;;;2.39;100.00;98550.77;67830;1278;1016385;-59
2023/01/20 07:20:34;;;;;;;37.50;14.60;;;;;;;2.28;100.00;98552.46;67850;1278;1016572;-59
2023/01/20 07:23:36;;;;;;;36.90;14.20;;;;;;;2.30;100.00;98555.36;67794;1277;1016495;-59
2023/01/20 07:26:39;;;;;;;43.50;16.30;;;;;;;2.36;100.00;98557.07;67780;1277;1016054;-59
2023/01/20 07:29:42;;;;;;;39.60;15.40;;;;;;;2.37;100.00;98557.89;67838;1277;1016440;-59
2023/01/20 07:32:45;;;;;;;40.80;15.20;;;;;;;2.33;100.00;98556.46;67804;1278;1016128;-59
2023/01/20 07:35:47;;;;;;;36.90;15.50;;;;;;;2.43;100.00;98556.16;67804;1278;1017936;-59
2023/01/20 07:38:49;;;;;;;38.30;15.00;;;;;;;2.50;100.00;98554.36;67860;1278;1018516;-59
2023/01/20 07:41:52;;;;;;;39.20;15.90;;;;;;;2.57;100.00;98553.62;67839;1278;1015887;-59
2023/01/20 07:44:54;;;;;;;42.90;16.30;;;;;;;2.65;100.00;98549.73;67842;1277;1016334;-59
2023/01/20 07:47:57;;;;;;;43.60;17.30;;;;;;;2.78;100.00;98550.86;67790;1278;1016207;-59
2023/01/20 07:51:02;;;;;;;39.80;16.80;;;;;;;2.93;100.00;98552.06;67798;1277;1016362;-59
2023/01/20 07:54:04;;;;;;;40.80;17.10;;;;;;;3.06;100.00;98555.60;67858;1277;1016411;-59
2023/01/20 07:57:07;;;;;;;42.80;17.10;;;;;;;3.17;100.00;98566.14;67799;1278;1016347;-59
2023/01/20 08:00:10;;;;;;;43.60;17.80;;;;;;;3.21;100.00;98566.31;67858;1277;1015778;-60
2023/01/20 08:03:13;;;;;;;42.40;16.70;;;;;;;3.34;100.00;98570.53;67808;1278;1016422;-60
2023/01/20 08:06:15;;;;;;;42.40;17.70;;;;;;;3.48;100.00;98572.78;67780;1278;1016470;-59
2023/01/20 08:09:18;;;;;;;40.80;17.60;;;;;;;3.62;100.00;98571.60;67790;1278;1016325;-59
2023/01/20 08:12:20;;;;;;;44.10;17.70;;;;;;;3.75;100.00;98566.61;67840;1278;1016068;-59
2023/01/20 08:15:22;;;;;;;43.80;18.50;;;;;;;3.87;100.00;98566.17;67843;1277;1016465;-59
2023/01/20 08:18:25;;;;;;;43.10;17.70;;;;;;;3.96;100.00;98565.14;67846;1277;1016287;-59
2023/01/20 08:21:27;;;;;;;42.40;17.30;;;;;;;3.99;100.00;98566.60;67805;1277;1018256;-59
2023/01/20 08:24:30;;;;;;;46.30;18.40;;;;;;;3.96;100.00;98558.92;67793;1278;1016398;-59
2023/01/20 08:27:32;;;;;;;42.50;18.00;;;;;;;3.94;100.00;98556.08;67820;1277;1016427;-60
2023/01/20 08:30:35;;;;;;;43.10;18.10;;;;;;;3.96;100.00;98560.62;67869;1278;1016471;-59
2023/01/20 08:33:37;;;;;;;46.40;19.80;;;;;;;3.94;100.00;98564.52;67806;1277;1016298;-59
2023/01/20 08:36:39;;;;;;;44.60;18.70;;;;;;;3.97;100.00;98561.31;67792;1277;1017024;-59
2023/01/20 08:39:42;;;;;;;43.00;18.00;;;;;;;3.97;100.00;98570.29;67834;1277;1016093;-59
2023/01/20 08:42:44;;;;;;;44.50;18.30;;;;;;;4.03;100.00;98578.57;67853;1277;1016468;-59
2023/01/20 08:45:47;;;;;;;42.80;18.60;;;;;;;4.05;100.00;98578.48;67839;1278;1016245;-59
2023/01/20 08:48:49;;;;;;;47.90;20.20;;;;;;;4.09;100.00;98582.80;67832;1277;1016718;-59
2023/01/20 08:51:52;;;;;;;44.50;18.80;;;;;;;4.16;100.00;98589.12;67786;1277;1018784;-59
2023/01/20 08:54:54;;;;;;;42.60;19.10;;;;;;;4.30;100.00;98596.05;67788;1278;1016409;-59
2023/01/20 08:57:57;;;;;;;45.40;19.40;;;;;;;4.33;100.00;98600.05;67849;1278;1016730;-59
2023/01/20 09:00:59;;;;;;;44.40;18.80;;;;;;;4.33;100.00;98603.04;67848;1278;1016520;-59
2023/01/20 09:04:02;;;;;;;44.20;18.90;;;;;;;4.42;100.00;98606.14;67824;1277;1016377;-59
2023/01/20 09:07:04;;;;;;;48.50;19.90;;;;;;;4.47;100.00;98614.92;67805;1277;1016224;-60
2023/01/20 09:10:07;;;;;;;49.10;19.80;;;;;;;4.54;100.00;98619.34;67808;1277;1016064;-59
2023/01/20 09:13:09;;;;;;;45.40;20.40;;;;;;;4.60;100.00;98621.68;67852;1277;1016318;-60
2023/01/20 09:16:12;;;;;;;45.90;19.40;;;;;;;4.70;100.00;98625.14;67813;1278;1016433;-59
2023/01/20 09:19:14;;;;;;;47.20;19.70;;;;;;;4.56;100.00;98624.83;67760;1277;1016021;-59
2023/01/20 09:22:17;;;;;;;48.20;20.50;;;;;;;4.53;100.00;98623.54;67815;1278;1016197;-59
2023/01/20 09:25:19;;;;;;;49.40;21.20;;;;;;;4.58;100.00;98620.73;67854;1277;1016279;-60
2023/01/20 09:28:21;;;;;;;48.70;21.00;;;;;;;4.66;100.00;98621.80;67847;1277;1015984;-60
2023/01/20 09:31:24;;;;;;;49.70;20.80;;;;;;;4.60;100.00;98622.73;67808;1277;1017294;-59
2023/01/20 09:34:28;;;;;;;47.80;21.20;;;;;;;4.51;100.00;98615.63;67828;1278;1016451;-59
2023/01/20 09:44:10;;;;;;;46.80;20.50;;;;;;;4.45;100.00;98616.77;67806;1277;1019032;-59
2023/01/20 09:47:22;;;;;;;49.20;21.10;;;;;;;4.45;100.00;98615.19;67813;1277;1016390;-59
2023/01/20 09:53:44;;;;;;;55.00;21.60;;;;;;;4.30;100.00;98606.42;67814;1278;1016451;-59
2023/01/20 09:56:47;;;;;;;52.00;23.80;;;;;;;4.16;100.00;98607.48;67825;1278;1016382;-59
2023/01/20 09:59:49;;;;;;;53.20;23.60;;;;;;;4.17;100.00;98605.73;67833;1278;1016411;-59
2023/01/20 10:02:52;;;;;;;53.70;23.40;;;;;;;4.18;100.00;98603.77;67835;1278;1018993;-59
2023/01/20 10:05:54;;;;;;;54.10;22.40;;;;;;;4.20;100.00;98595.75;67812;1277;1016214;-59
2023/01/20 10:08:57;;;;;;;55.10;22.70;;;;;;;4.09;100.00;98604.80;67798;1278;1018302;-59
2023/01/20 10:11:59;;;;;;;52.60;22.20;;;;;;;3.94;100.00;98600.52;67855;1278;1016957;-59
2023/01/20 10:15:02;;;;;;;56.00;23.40;;;;;;;4.03;100.00;98600.88;67859;1278;1016396;-59
2023/01/20 10:18:04;;;;;;;;;;;;;;;3.99;100.00;98601.01;67821;1277;1016384;-59
2023/01/20 10:21:07;;;;;;;52.50;21.40;;;;;;;3.94;100.00;98598.29;67796;1278;1018371;-59
2023/01/20 10:24:09;;;;;;;53.70;23.40;;;;;;;3.92;100.00;98597.63;65253;1278;5389648;-59
2023/01/20 10:27:12;;;;;;;53.00;22.10;;;;;;;4.01;100.00;98598.85;67848;1277;1016461;-59
2023/01/20 10:30:23;;;;;;;49.10;22.00;;;;;;;4.16;100.00;98598.85;67794;1278;1017035;-59
2023/01/20 10:33:25;;;;;;;50.30;20.40;;;;;;;4.02;100.00;98602.13;67782;1278;1016478;-59
2023/01/20 10:36:28;;;;;;;49.10;21.30;;;;;;;4.05;100.00;98599.08;67846;1278;1017775;-59
2023/01/20 10:39:30;;;;;;;50.20;21.50;;;;;;;4.09;100.00;98600.48;67734;1277;1016334;-59
2023/01/20 10:42:33;;;;;;;51.60;21.90;;;;;;;4.21;100.00;98601.90;67823;1278;1017608;-59
2023/01/20 10:45:35;;;;;;;56.70;23.20;;;;;;;4.43;100.00;98598.84;67844;1278;1018638;-59
2023/01/20 10:48:38;;;;;;;46.10;21.10;;;;;;;4.43;100.00;98601.93;67851;1277;1016410;-59
2023/01/20 10:51:40;;;;;;;50.70;22.00;;;;;;;4.32;100.00;98605.64;67796;1277;1016948;-59
2023/01/20 10:54:42;;;;;;;50.80;22.70;;;;;;;4.33;100.00;98611.14;67801;1277;1016449;-58
2023/01/20 10:57:45;;;;;;;55.10;23.90;;;;;;;4.16;100.00;98618.03;67797;1278;1016431;-60
2023/01/20 11:00:48;;;;;;;49.80;22.80;;;;;;;3.98;100.00;98620.77;67708;1278;1016497;-59
2023/01/20 11:03:51;;;;;;;50.00;22.50;;;;;;;3.96;100.00;98621.88;67827;1278;1016413;-59
2023/01/20 11:06:53;;;;;;;50.50;23.00;;;;;;;3.88;100.00;98619.79;67799;1277;1016466;-59
2023/01/20 11:09:56;;;;;;;49.40;23.80;;;;;;;3.81;100.00;98619.34;67871;1277;1016515;-59
2023/01/20 11:12:58;;;;;;;54.00;23.70;;;;;;;3.80;100.00;98622.83;67876;1278;1015837;-59
2023/01/20 11:16:01;;;;;;;55.90;24.00;;;;;;;3.83;100.00;98622.75;67800;1277;1016225;-59
2023/01/20 11:19:03;;;;;;;51.10;23.10;;;;;;;3.80;100.00;98623.00;67769;1277;1016352;-59
2023/01/20 11:22:05;;;;;;;56.00;23.90;;;;;;;3.91;100.00;98625.20;67790;1278;1016414;-59
2023/01/20 11:25:08;;;;;;;57.00;25.50;;;;;;;3.96;100.00;98624.66;67847;1278;1015808;-59
2023/01/20 11:28:10;;;;;;;58.50;25.60;;;;;;;3.93;100.00;98625.84;67857;1277;1018467;-59
2023/01/20 11:31:13;;;;;;;55.60;25.80;;;;;;;3.99;100.00;98626.11;67862;1277;1016219;-59
2023/01/20 11:34:15;;;;;;;53.50;24.90;;;;;;;4.04;100.00;98624.20;67825;1278;1019474;-59
2023/01/20 11:37:18;;;;;;;56.30;25.00;;;;;;;4.05;100.00;98624.86;67807;1278;1016196;-59
2023/01/20 11:40:20;;;;;;;55.10;25.00;;;;;;;4.04;100.00;98628.00;67843;1277;1016342;-59
2023/01/20 11:43:22;;;;;;;51.80;23.50;;;;;;;4.11;100.00;98635.88;67851;1277;1016452;-59
2023/01/20 11:46:25;;;;;;;57.20;24.20;;;;;;;4.11;100.00;98636.55;67842;1277;1016301;-59
2023/01/20 11:49:27;;;;;;;62.90;26.90;;;;;;;4.05;100.00;98634.36;67756;1277;1016529;-59
2023/01/20 11:52:30;;;;;;;61.90;26.70;;;;;;;4.02;100.00;98634.48;67811;1278;1016384;-59
2023/01/20 11:55:32;;;;;;;59.00;26.10;;;;;;;3.99;100.00;98639.23;67792;1278;1016398;-59
2023/01/20 11:58:35;;;;;;;57.90;25.00;;;;;;;4.04;100.00;98637.33;67815;1277;1016405;-59
2023/01/20 12:01:37;;;;;;;58.10;25.80;;;;;;;4.20;100.00;98631.39;67823;1278;1016463;-59
2023/01/20 12:04:39;;;;;;;57.90;25.30;;;;;;;4.07;100.00;98623.40;67785;1277;1016619;-59
2023/01/20 12:07:42;;;;;;;56.00;23.50;;;;;;;3.97;100.00;98618.23;67781;1277;1016384;-59
2023/01/20 12:10:44;;;;;;;52.30;22.20;;;;;;;3.98;100.00;98613.01;67826;1277;1019462;-59
2023/01/20 12:17:07;;;;;;;45.30;18.10;;;;;;;3.84;100.00;98596.73;67819;1277;1016583;-60
2023/01/20 12:20:09;;;;;;;44.60;17.80;;;;;;;3.63;100.00;98599.92;67852;1277;1016535;-60
2023/01/20 12:23:12;;;;;;;45.80;19.60;;;;;;;3.52;100.00;98604.82;67815;1278;1018368;-60
2023/01/20 12:26:14;;;;;;;41.90;17.50;;;;;;;3.45;100.00;98606.44;67825;1278;1017413;-60
2023/01/20 12:29:17;;;;;;;39.20;16.20;;;;;;;3.46;100.00;98594.13;67853;1277;1016066;-60
2023/01/20 12:32:19;;;;;;;40.30;15.90;;;;;;;3.40;100.00;98581.56;67853;1277;1016506;-60
2023/01/20 12:35:22;;;;;;;39.90;15.30;;;;;;;3.38;100.00;98578.52;67824;1277;1020167;-60
2023/01/20 12:38:24;;;;;;;;;;;;;;;3.31;100.00;98580.68;67860;1277;1017533;-60
2023/01/20 12:41:27;;;;;;;39.20;15.10;;;;;;;3.27;100.00;98581.83;67859;1277;1016384;-60
2023/01/20 12:44:29;;;;;;;39.30;14.50;;;;;;;3.05;100.00;98589.34;67862;1277;1016602;-60
2023/01/20 12:47:32;;;;;;;35.70;14.00;;;;;;;2.82;100.00;98589.23;67777;1278;1016406;-60
2023/01/20 12:50:34;;;;;;;39.80;15.20;;;;;;;2.73;100.00;98596.60;67809;1278;1016326;-60
2023/01/20 12:53:37;;;;;;;38.60;14.50;;;;;;;2.68;100.00;98602.32;67822;1278;1016273;-60
2023/01/20 12:56:40;;;;;;;37.80;14.90;;;;;;;2.68;100.00;98607.81;67823;1277;1016485;-60
2023/01/20 12:59:42;;;;;;;37.80;14.10;;;;;;;2.66;100.00;98613.94;67857;1278;1016517;-60
2023/01/20 13:02:45;;;;;;;39.00;14.90;;;;;;;2.69;100.00;98615.39;67854;1277;1017663;-60
2023/01/20 13:05:47;;;;;;;39.20;15.20;;;;;;;2.70;100.00;98618.45;67776;1278;1016230;-60
2023/01/20 13:08:50;;;;;;;38.60;14.70;;;;;;;2.69;100.00;98617.82;67759;1277;1016349;-60
2023/01/20 13:11:52;;;;;;;40.10;14.40;;;;;;;2.66;100.00;98615.66;67796;1278;1016665;-60
2023/01/20 13:14:55;;;;;;;39.60;14.70;;;;;;;2.56;100.00;98620.29;67848;1278;1016195;-59
2023/01/20 13:17:57;;;;;;;45.00;15.90;;;;;;;2.64;100.00;98622.09;67777;1278;1016353;-60
2023/01/20 13:21:00;;;;;;;40.40;14.50;;;;;;;2.75;100.00;98620.73;67845;1277;1016407;-60
2023/01/20 13:24:02;;;;;;;42.70;15.60;;;;;;;2.75;100.00;98613.82;67816;1278;1016802;-60
2023/01/20 13:27:05;;;;;;;39.00;14.60;;;;;;;2.71;100.00;98608.09;67818;1278;1018274;-59
2023/01/20 13:30:07;;;;;;;37.90;14.40;;;;;;;2.74;100.00;98612.28;67855;1277;1016280;-60
2023/01/20 13:33:10;;;;;;;;;;;;;;;2.70;100.00;98619.52;67824;1277;1016498;-60
2023/01/20 13:36:12;;;;;;;41.90;14.60;;;;;;;2.56;100.00;98626.00;67804;1278;1016394;-60
2023/01/20 13:39:15;;;;;;;38.20;14.80;;;;;;;2.49;100.00;98624.83;67825;1278;1016395;-60
2023/01/20 13:42:17;;;;;;;44.30;16.20;;;;;;;2.48;100.00;98631.23;67841;1277;1016060;-59
2023/01/20 13:45:21;;;;;;;45.00;16.10;;;;;;;2.46;100.00;98637.85;67771;1277;1016406;-60
2023/01/20 13:48:23;;;;;;;45.70;17.60;;;;;;;2.49;100.00;98640.55;67856;1277;1016398;-60
2023/01/20 13:51:26;;;;;;;40.60;14.50;;;;;;;2.43;100.00;98645.38;67825;1277;1018896;-60
2023/01/20 13:54:32;;;;;;;42.20;15.90;;;;;;;2.41;100.00;98646.48;67809;1277;1016412;-60